createdAt,value
2019-03-17T00:01:28.259Z,0.00
2019-03-17T00:02:28.048Z,0.00
2019-03-17T00:04:31.442Z,0.00
2019-03-17T00:05:25.470Z,0.00
2019-03-17T00:07:18.582Z,0.00
2019-03-17T00:08:19.042Z,0.00
2019-03-17T00:10:12.169Z,0.00
2019-03-17T00:11:12.137Z,0.00
2019-03-17T00:13:05.652Z,0.00
2019-03-17T00:14:05.072Z,0.00
2019-03-17T00:15:56.946Z,0.00
2019-03-17T00:16:57.364Z,0.00
2019-03-17T00:19:07.048Z,0.00
2019-03-17T00:20:05.916Z,0.00
2019-03-17T00:21:59.953Z,0.00
2019-03-17T00:23:00.577Z,0.00
2019-03-17T00:25:10.268Z,0.00
2019-03-17T00:26:08.444Z,0.00
2019-03-17T00:27:08.992Z,0.00
2019-03-17T00:28:09.536Z,0.00
2019-03-17T00:29:08.421Z,0.00
2019-03-17T00:30:08.929Z,0.00
2019-03-17T00:31:08.679Z,0.00
2019-03-17T00:32:07.432Z,0.00
2019-03-17T00:33:07.281Z,0.00
2019-03-17T00:34:07.360Z,0.00
2019-03-17T00:35:07.258Z,0.00
2019-03-17T00:36:07.270Z,0.00
2019-03-17T00:37:07.313Z,0.00
2019-03-17T00:38:07.115Z,0.00
2019-03-17T00:39:07.044Z,0.00
2019-03-17T00:40:07.097Z,0.00
2019-03-17T00:41:07.027Z,0.00
2019-03-17T00:42:07.048Z,0.00
2019-03-17T00:43:06.892Z,0.00
2019-03-17T00:44:06.846Z,0.00
2019-03-17T00:45:06.794Z,0.00
2019-03-17T00:46:06.790Z,0.00
2019-03-17T00:47:06.872Z,0.00
2019-03-17T00:48:06.715Z,0.00
2019-03-17T00:49:06.635Z,0.00
2019-03-17T00:50:06.605Z,0.00
2019-03-17T00:51:06.589Z,0.00
2019-03-17T00:52:06.572Z,0.00
2019-03-17T00:53:06.573Z,0.00
2019-03-17T00:54:06.533Z,0.00
2019-03-17T00:55:06.469Z,0.00
2019-03-17T00:56:06.401Z,0.00
2019-03-17T00:57:06.372Z,0.00
2019-03-17T00:58:06.294Z,0.00
2019-03-17T00:59:06.737Z,0.00
2019-03-17T01:00:06.284Z,0.00
2019-03-17T01:01:06.213Z,0.00
2019-03-17T01:02:06.175Z,0.00
2019-03-17T01:03:06.110Z,0.00
2019-03-17T01:04:06.198Z,0.00
2019-03-17T01:05:06.155Z,0.00
2019-03-17T01:06:06.063Z,0.00
2019-03-17T01:07:06.126Z,0.00
2019-03-17T01:09:02.630Z,0.00
2019-03-17T01:10:02.707Z,0.00
2019-03-17T01:11:55.604Z,0.00
2019-03-17T01:12:54.957Z,0.00
2019-03-17T01:14:48.500Z,0.00
2019-03-17T01:15:48.890Z,0.00
2019-03-17T01:17:42.023Z,0.00
2019-03-17T01:18:40.838Z,0.00
2019-03-17T01:20:34.634Z,0.00
2019-03-17T01:21:34.138Z,0.00
2019-03-17T01:23:27.974Z,0.00
2019-03-17T01:24:27.602Z,0.00
2019-03-17T01:26:20.313Z,0.00
2019-03-17T01:27:20.958Z,0.00
2019-03-17T01:29:13.931Z,0.00
2019-03-17T01:30:13.540Z,0.00
2019-03-17T01:32:10.210Z,0.00
2019-03-17T01:33:09.974Z,0.00
2019-03-17T01:35:08.961Z,0.00
2019-03-17T01:36:02.020Z,0.00
2019-03-17T01:37:57.091Z,0.00
2019-03-17T01:38:55.795Z,0.00
2019-03-17T01:40:48.283Z,0.00
2019-03-17T01:41:49.074Z,0.00
2019-03-17T01:43:42.650Z,0.00
2019-03-17T01:44:40.877Z,0.00
2019-03-17T01:46:37.089Z,0.00
2019-03-17T01:47:37.000Z,0.00
2019-03-17T01:49:30.369Z,0.00
2019-03-17T01:50:28.888Z,0.00
2019-03-17T01:52:23.179Z,0.00
2019-03-17T01:53:21.946Z,0.00
2019-03-17T01:55:15.893Z,0.00
2019-03-17T01:56:16.155Z,0.00
2019-03-17T01:58:09.029Z,0.00
2019-03-17T01:59:08.652Z,0.00
2019-03-17T02:01:02.082Z,0.00
2019-03-17T02:02:01.857Z,0.00
2019-03-17T02:03:57.640Z,0.00
2019-03-17T02:04:56.694Z,0.00
2019-03-17T02:06:52.070Z,0.00
2019-03-17T02:07:52.233Z,0.00
2019-03-17T02:09:45.305Z,0.00
2019-03-17T02:10:45.300Z,0.00
2019-03-17T02:12:38.765Z,0.00
2019-03-17T02:13:38.469Z,0.00
2019-03-17T02:15:31.184Z,0.00
2019-03-17T02:16:29.551Z,0.00
2019-03-17T02:18:25.708Z,0.00
2019-03-17T02:19:25.684Z,0.00
2019-03-17T02:21:17.543Z,0.00
2019-03-17T02:22:18.656Z,0.00
2019-03-17T02:24:11.313Z,0.00
2019-03-17T02:25:11.527Z,0.00
2019-03-17T02:27:06.755Z,0.00
2019-03-17T02:28:06.550Z,0.00
2019-03-17T02:29:59.267Z,0.00
2019-03-17T02:30:59.578Z,0.00
2019-03-17T02:32:52.213Z,0.00
2019-03-17T02:33:51.359Z,0.00
2019-03-17T02:35:45.162Z,0.00
2019-03-17T02:36:44.290Z,0.00
2019-03-17T02:38:38.163Z,0.00
2019-03-17T02:39:37.743Z,0.00
2019-03-17T02:41:32.357Z,0.00
2019-03-17T02:42:31.103Z,0.00
2019-03-17T02:44:25.514Z,0.00
2019-03-17T02:45:24.218Z,0.00
2019-03-17T02:47:20.659Z,0.00
2019-03-17T02:48:21.009Z,0.00
2019-03-17T02:50:14.982Z,0.00
2019-03-17T02:51:13.579Z,0.00
2019-03-17T02:53:09.185Z,0.00
2019-03-17T02:54:07.594Z,0.00
2019-03-17T02:56:17.140Z,0.00
2019-03-17T02:57:15.202Z,0.00
2019-03-17T02:59:09.999Z,0.00
2019-03-17T03:00:08.229Z,0.00
2019-03-17T03:02:04.269Z,0.00
2019-03-17T03:04:59.935Z,0.00
2019-03-17T03:05:59.168Z,0.00
2019-03-17T03:07:53.325Z,0.00
2019-03-17T03:08:52.110Z,0.00
2019-03-17T03:10:46.383Z,0.00
2019-03-17T03:11:44.645Z,0.00
2019-03-17T03:13:38.909Z,0.00
2019-03-17T03:14:38.876Z,0.00
2019-03-17T03:16:32.248Z,0.00
2019-03-17T03:17:32.040Z,0.00
2019-03-17T03:19:44.450Z,0.00
2019-03-17T03:20:44.475Z,0.00
2019-03-17T03:22:41.185Z,0.00
2019-03-17T03:23:41.833Z,0.00
2019-03-17T03:25:35.423Z,0.00
2019-03-17T03:26:33.590Z,0.00
2019-03-17T03:28:28.348Z,0.00
2019-03-17T03:29:27.470Z,0.00
2019-03-17T03:31:22.896Z,0.00
2019-03-17T03:32:22.787Z,0.00
2019-03-17T03:34:16.318Z,0.00
2019-03-17T03:35:15.473Z,0.00
2019-03-17T03:37:11.904Z,0.00
2019-03-17T03:40:08.041Z,0.00
2019-03-17T03:41:08.613Z,0.00
2019-03-17T03:43:01.689Z,0.00
2019-03-17T03:44:00.503Z,0.00
2019-03-17T03:45:55.221Z,0.00
2019-03-17T03:46:55.126Z,0.00
2019-03-17T03:48:47.031Z,0.00
2019-03-17T03:49:47.976Z,0.00
2019-03-17T03:51:41.582Z,0.00
2019-03-17T03:52:39.803Z,0.00
2019-03-17T03:54:37.276Z,0.00
2019-03-17T03:55:36.707Z,0.00
2019-03-17T03:57:36.067Z,0.00
2019-03-17T03:58:35.047Z,0.00
2019-03-17T04:00:32.562Z,0.00
2019-03-17T04:01:33.513Z,0.00
2019-03-17T04:03:28.187Z,0.00
2019-03-17T04:04:28.242Z,0.00
2019-03-17T04:06:26.369Z,0.00
2019-03-17T04:07:20.301Z,0.00
2019-03-17T04:09:15.025Z,0.00
2019-03-17T04:10:13.305Z,0.00
2019-03-17T04:12:08.431Z,0.00
2019-03-17T04:13:08.515Z,0.00
2019-03-17T04:15:00.857Z,0.00
2019-03-17T04:16:01.447Z,0.00
2019-03-17T04:17:53.790Z,0.00
2019-03-17T04:18:53.989Z,0.00
2019-03-17T04:19:52.579Z,0.00
2019-03-17T04:20:53.511Z,0.00
2019-03-17T04:21:52.378Z,0.00
2019-03-17T04:22:52.037Z,0.00
2019-03-17T04:23:52.083Z,0.00
2019-03-17T04:24:51.965Z,0.00
2019-03-17T04:25:52.090Z,0.00
2019-03-17T04:26:52.014Z,0.00
2019-03-17T04:27:51.843Z,0.00
2019-03-17T04:28:51.804Z,0.00
2019-03-17T04:29:51.924Z,0.00
2019-03-17T04:30:51.717Z,0.00
2019-03-17T04:31:51.725Z,0.00
2019-03-17T04:32:51.656Z,0.00
2019-03-17T04:33:51.642Z,0.00
2019-03-17T04:34:51.623Z,0.00
2019-03-17T04:35:51.613Z,0.00
2019-03-17T04:36:51.506Z,0.00
2019-03-17T04:37:51.589Z,0.00
2019-03-17T04:38:51.435Z,0.00
2019-03-17T04:39:51.458Z,0.00
2019-03-17T04:40:51.379Z,0.00
2019-03-17T04:41:51.371Z,0.00
2019-03-17T04:42:51.281Z,0.00
2019-03-17T04:43:51.192Z,0.00
2019-03-17T04:44:51.329Z,0.00
2019-03-17T04:45:51.160Z,0.00
2019-03-17T04:46:51.144Z,0.00
2019-03-17T04:47:51.154Z,0.00
2019-03-17T04:48:51.167Z,4.00
2019-03-17T04:49:50.965Z,4.00
2019-03-17T04:50:50.940Z,0.00
2019-03-17T04:51:50.923Z,4.00
2019-03-17T04:52:50.833Z,4.00
2019-03-17T04:53:50.918Z,4.00
2019-03-17T04:54:50.888Z,8.00
2019-03-17T04:55:50.825Z,8.00
2019-03-17T04:56:50.770Z,8.00
2019-03-17T04:57:50.707Z,8.00
2019-03-17T04:58:50.615Z,12.00
2019-03-17T04:59:50.607Z,12.00
2019-03-17T05:00:50.557Z,16.00
2019-03-17T05:01:50.508Z,20.00
2019-03-17T05:02:50.552Z,28.00
2019-03-17T05:03:50.588Z,32.00
2019-03-17T05:05:45.960Z,44.00
2019-03-17T05:06:52.484Z,52.00
2019-03-17T05:08:40.185Z,76.00
2019-03-17T05:09:39.163Z,88.00
2019-03-17T05:11:33.172Z,124.00
2019-03-17T05:12:33.103Z,148.00
2019-03-17T05:14:24.914Z,188.00
2019-03-17T05:15:24.781Z,204.00
2019-03-17T05:17:20.479Z,240.00
2019-03-17T05:18:19.819Z,268.00
2019-03-17T05:20:14.933Z,324.00
2019-03-17T05:21:15.086Z,352.00
2019-03-17T05:23:07.371Z,416.00
2019-03-17T05:24:06.737Z,456.00
2019-03-17T05:26:01.341Z,556.00
2019-03-17T05:27:02.514Z,620.00
2019-03-17T05:28:54.861Z,748.00
2019-03-17T05:29:54.126Z,816.00
2019-03-17T05:31:48.837Z,964.00
2019-03-17T05:32:48.267Z,1040.00
2019-03-17T05:34:42.806Z,1192.00
2019-03-17T05:35:42.819Z,1284.00
2019-03-17T05:37:36.432Z,1464.00
2019-03-17T05:38:36.258Z,1576.00
2019-03-17T05:40:29.823Z,1780.00
2019-03-17T05:41:29.220Z,1892.00
2019-03-17T05:43:23.285Z,2100.00
2019-03-17T05:44:23.180Z,2216.00
2019-03-17T05:46:16.934Z,2440.00
2019-03-17T05:47:15.842Z,2560.00
2019-03-17T05:49:10.268Z,2804.00
2019-03-17T05:50:10.194Z,2932.00
2019-03-17T05:52:03.775Z,3184.00
2019-03-17T05:53:03.581Z,3312.00
2019-03-17T05:54:56.838Z,3568.00
2019-03-17T05:55:56.532Z,3700.00
2019-03-17T05:57:51.264Z,3956.00
2019-03-17T05:58:49.970Z,4084.00
2019-03-17T06:00:44.126Z,4364.00
2019-03-17T06:01:44.168Z,4536.00
2019-03-17T06:03:36.722Z,4944.00
2019-03-17T06:04:35.323Z,5188.00
2019-03-17T06:06:30.568Z,5588.00
2019-03-17T06:07:30.556Z,5760.00
2019-03-17T06:09:28.391Z,6008.00
2019-03-17T06:11:39.979Z,6172.00
2019-03-17T06:12:39.940Z,6324.00
2019-03-17T06:14:35.599Z,6340.00
2019-03-17T06:15:34.428Z,6452.00
2019-03-17T06:17:29.598Z,6536.00
2019-03-17T06:18:29.198Z,6524.00
2019-03-17T06:20:23.520Z,6352.00
2019-03-17T06:21:21.855Z,6316.00
2019-03-17T06:23:15.559Z,6368.00
2019-03-17T06:24:15.996Z,6336.00
2019-03-17T06:26:09.255Z,6608.00
2019-03-17T06:27:08.543Z,7044.00
2019-03-17T06:29:02.119Z,7820.00
2019-03-17T06:30:02.413Z,7316.00
2019-03-17T06:31:55.858Z,6500.00
2019-03-17T06:32:56.957Z,6884.00
2019-03-17T06:34:51.420Z,8004.00
2019-03-17T06:35:51.870Z,8680.00
2019-03-17T06:37:49.128Z,9980.00
2019-03-17T06:38:48.657Z,9504.00
2019-03-17T06:40:43.525Z,8632.00
2019-03-17T06:41:43.530Z,7816.00
2019-03-17T06:43:37.144Z,7880.00
2019-03-17T06:44:36.440Z,8192.00
2019-03-17T06:46:31.244Z,8796.00
2019-03-17T06:47:31.271Z,8500.00
2019-03-17T06:49:24.663Z,8388.00
2019-03-17T06:50:24.497Z,8176.00
2019-03-17T06:52:18.209Z,7920.00
2019-03-17T06:53:17.864Z,8340.00
2019-03-17T06:55:12.122Z,8548.00
2019-03-17T06:56:10.838Z,8744.00
2019-03-17T06:58:06.671Z,8636.00
2019-03-17T06:59:06.246Z,8500.00
2019-03-17T07:00:59.613Z,10828.00
2019-03-17T07:02:00.289Z,11628.00
2019-03-17T07:03:54.180Z,14612.00
2019-03-17T07:04:54.247Z,15572.00
2019-03-17T07:06:47.099Z,16064.00
2019-03-17T07:07:47.016Z,18016.00
2019-03-17T07:09:40.130Z,23872.00
2019-03-17T07:10:40.102Z,26848.00
2019-03-17T07:12:33.697Z,26176.00
2019-03-17T07:13:32.438Z,26624.00
2019-03-17T07:15:31.240Z,29504.00
2019-03-17T07:16:31.081Z,28224.00
2019-03-17T07:18:28.769Z,28512.00
2019-03-17T07:19:28.777Z,29408.00
2019-03-17T07:21:22.338Z,30880.00
2019-03-17T07:22:22.330Z,31648.00
2019-03-17T07:24:15.637Z,33248.00
2019-03-17T07:25:13.575Z,31552.00
2019-03-17T07:27:07.836Z,31520.00
2019-03-17T07:28:08.387Z,32256.00
2019-03-17T07:30:01.855Z,29504.00
2019-03-17T07:31:01.133Z,33888.00
2019-03-17T07:32:55.365Z,35744.00
2019-03-17T07:33:55.118Z,35168.00
2019-03-17T07:35:49.516Z,29952.00
2019-03-17T07:36:49.551Z,31328.00
2019-03-17T07:38:42.771Z,31008.00
2019-03-17T07:39:42.103Z,34592.00
2019-03-17T07:41:36.787Z,27808.00
2019-03-17T07:42:35.274Z,32160.00
2019-03-17T07:44:30.358Z,33280.00
2019-03-17T07:45:28.239Z,39040.00
2019-03-17T07:47:26.733Z,34336.00
2019-03-17T07:48:25.164Z,35008.00
2019-03-17T07:50:20.447Z,27808.00
2019-03-17T07:51:19.072Z,20448.00
2019-03-17T07:53:13.366Z,26528.00
2019-03-17T07:54:12.140Z,29312.00
2019-03-17T07:56:07.413Z,28608.00
2019-03-17T07:57:05.262Z,29280.00
2019-03-17T07:59:04.847Z,36864.00
2019-03-17T08:00:02.961Z,46528.00
2019-03-17T08:01:58.251Z,46688.00
2019-03-17T08:02:58.118Z,50304.00
2019-03-17T08:04:51.322Z,50784.00
2019-03-17T08:05:51.594Z,49664.00
2019-03-17T08:07:44.662Z,32352.00
2019-03-17T08:08:46.715Z,36416.00
2019-03-17T08:10:38.939Z,44576.00
2019-03-17T08:11:37.630Z,43104.00
2019-03-17T08:13:31.817Z,55616.00
2019-03-17T08:14:30.889Z,55136.00
2019-03-17T08:16:26.471Z,54752.00
2019-03-17T08:17:25.873Z,46400.00
2019-03-17T08:19:23.846Z,23072.00
2019-03-17T08:20:23.601Z,37600.00
2019-03-17T08:22:19.913Z,18496.00
2019-03-17T08:23:19.935Z,16632.00
2019-03-17T08:25:12.678Z,38368.00
2019-03-17T08:26:11.138Z,54016.00
2019-03-17T08:28:06.118Z,57696.00
2019-03-17T08:29:06.051Z,58720.00
2019-03-17T08:30:58.690Z,57088.00
2019-03-17T08:31:57.053Z,41216.00
2019-03-17T08:33:52.248Z,44288.00
2019-03-17T08:34:50.509Z,57024.00
2019-03-17T08:36:45.338Z,49888.00
2019-03-17T08:37:44.121Z,36800.00
2019-03-17T08:39:39.356Z,45888.00
2019-03-17T08:40:38.195Z,59360.00
2019-03-17T08:42:32.841Z,56192.00
2019-03-17T08:43:32.869Z,64416.00
2019-03-17T08:45:24.364Z,41216.00
2019-03-17T08:46:24.289Z,56192.00
2019-03-17T08:48:18.596Z,57600.00
2019-03-17T08:49:17.352Z,60800.00
2019-03-17T08:51:11.682Z,59264.00
2019-03-17T08:52:11.148Z,56288.00
2019-03-17T08:54:05.384Z,67136.00
2019-03-17T08:55:04.210Z,70336.00
2019-03-17T08:56:59.275Z,65280.00
2019-03-17T08:57:59.272Z,64096.00
2019-03-17T08:59:52.282Z,69312.00
2019-03-17T09:00:50.789Z,71392.00
2019-03-17T09:02:46.207Z,67456.00
2019-03-17T09:03:44.266Z,66272.00
2019-03-17T09:05:39.126Z,67168.00
2019-03-17T09:06:39.903Z,51072.00
2019-03-17T09:08:35.358Z,43904.00
2019-03-17T09:09:32.499Z,69728.00
2019-03-17T09:10:33.397Z,68032.00
2019-03-17T09:11:32.616Z,68000.00
2019-03-17T09:12:32.503Z,72512.00
2019-03-17T09:13:32.558Z,74880.00
2019-03-17T09:14:33.901Z,74048.00
2019-03-17T09:15:34.191Z,69536.00
2019-03-17T09:16:34.146Z,71552.00
2019-03-17T09:17:33.952Z,63424.00
2019-03-17T09:18:34.393Z,74784.00
2019-03-17T09:19:33.921Z,71168.00
2019-03-17T09:20:33.204Z,71968.00
2019-03-17T09:21:33.897Z,74976.00
2019-03-17T09:22:33.844Z,63296.00
2019-03-17T09:23:31.994Z,61376.00
2019-03-17T09:24:33.839Z,73728.00
2019-03-17T09:25:33.974Z,75168.00
2019-03-17T09:26:33.828Z,79072.00
2019-03-17T09:27:33.902Z,79680.00
2019-03-17T09:28:32.153Z,79136.00
2019-03-17T09:29:32.713Z,78112.00
2019-03-17T09:30:33.872Z,73472.00
2019-03-17T09:31:33.808Z,79968.00
2019-03-17T09:32:32.665Z,35936.00
2019-03-17T09:33:31.682Z,72256.00
2019-03-17T09:34:35.539Z,74432.00
2019-03-17T09:35:34.697Z,69280.00
2019-03-17T09:36:34.804Z,48352.00
2019-03-17T09:37:33.402Z,75040.00
2019-03-17T09:38:31.641Z,74592.00
2019-03-17T09:39:31.558Z,78208.00
2019-03-17T09:40:31.465Z,82240.00
2019-03-17T09:41:31.529Z,74656.00
2019-03-17T09:42:31.454Z,84352.00
2019-03-17T09:43:31.395Z,61984.00
2019-03-17T09:44:31.417Z,63168.00
2019-03-17T09:45:31.362Z,64064.00
2019-03-17T09:46:31.321Z,66720.00
2019-03-17T09:47:31.332Z,66720.00
2019-03-17T09:48:31.282Z,60832.00
2019-03-17T09:49:31.263Z,64864.00
2019-03-17T09:50:31.245Z,64096.00
2019-03-17T09:51:31.216Z,49536.00
2019-03-17T09:52:31.376Z,75456.00
2019-03-17T09:53:31.160Z,83904.00
2019-03-17T09:54:31.144Z,80992.00
2019-03-17T09:55:31.412Z,78400.00
2019-03-17T09:56:31.121Z,74496.00
2019-03-17T09:57:31.117Z,76640.00
2019-03-17T09:58:31.085Z,70656.00
2019-03-17T09:59:31.012Z,79552.00
2019-03-17T10:00:31.001Z,62720.00
2019-03-17T10:01:30.984Z,73504.00
2019-03-17T10:02:30.979Z,65248.00
2019-03-17T10:03:30.977Z,25216.00
2019-03-17T10:04:30.935Z,83584.00
2019-03-17T10:05:30.885Z,79296.00
2019-03-17T10:06:30.852Z,73472.00
2019-03-17T10:07:30.852Z,81152.00
2019-03-17T10:08:30.822Z,88480.00
2019-03-17T10:09:30.793Z,90240.00
2019-03-17T10:10:30.770Z,91840.00
2019-03-17T10:11:30.749Z,94176.00
2019-03-17T10:12:30.876Z,39008.00
2019-03-17T10:13:30.687Z,62784.00
2019-03-17T10:14:30.673Z,31200.00
2019-03-17T10:15:30.675Z,87392.00
2019-03-17T10:16:30.679Z,91360.00
2019-03-17T10:17:30.614Z,87328.00
2019-03-17T10:18:30.601Z,82496.00
2019-03-17T10:19:30.643Z,87680.00
2019-03-17T10:20:30.709Z,26304.00
2019-03-17T10:21:30.600Z,84672.00
2019-03-17T10:22:30.523Z,72000.00
2019-03-17T10:23:30.526Z,62112.00
2019-03-17T10:24:30.452Z,65728.00
2019-03-17T10:25:30.454Z,85120.00
2019-03-17T10:26:30.425Z,99488.00
2019-03-17T10:27:30.402Z,96128.00
2019-03-17T10:28:30.361Z,98752.00
2019-03-17T10:29:30.376Z,42048.00
2019-03-17T10:30:30.951Z,28768.00
2019-03-17T10:31:30.294Z,27520.00
2019-03-17T10:32:30.263Z,31776.00
2019-03-17T10:33:30.281Z,104480.00
2019-03-17T10:34:30.220Z,93344.00
2019-03-17T10:35:30.233Z,34720.00
2019-03-17T10:36:30.960Z,79744.00
2019-03-17T10:37:30.164Z,23104.00
2019-03-17T10:38:30.256Z,20928.00
2019-03-17T10:39:30.148Z,22656.00
2019-03-17T10:40:30.072Z,24256.00
2019-03-17T10:41:30.073Z,23072.00
2019-03-17T10:42:30.053Z,18528.00
2019-03-17T10:43:29.999Z,14536.00
2019-03-17T10:44:29.977Z,16000.00
2019-03-17T10:45:29.968Z,16396.00
2019-03-17T10:46:29.952Z,16660.00
2019-03-17T10:47:29.925Z,21824.00
2019-03-17T10:48:29.870Z,22976.00
2019-03-17T10:49:29.831Z,20384.00
2019-03-17T10:50:29.817Z,21440.00
2019-03-17T10:51:29.794Z,22464.00
2019-03-17T10:52:29.768Z,21248.00
2019-03-17T10:53:29.822Z,19968.00
2019-03-17T10:54:29.697Z,21184.00
2019-03-17T10:55:29.717Z,27680.00
2019-03-17T10:56:29.665Z,30912.00
2019-03-17T10:57:29.621Z,29632.00
2019-03-17T10:58:29.588Z,29472.00
2019-03-17T10:59:29.567Z,33568.00
2019-03-17T11:00:29.564Z,124768.00
2019-03-17T11:01:29.505Z,40992.00
2019-03-17T11:02:29.477Z,38400.00
2019-03-17T11:03:29.615Z,34080.00
2019-03-17T11:04:29.414Z,31872.00
2019-03-17T11:05:29.457Z,68192.00
2019-03-17T11:06:29.340Z,48736.00
2019-03-17T11:07:29.310Z,42880.00
2019-03-17T11:08:29.300Z,34592.00
2019-03-17T11:09:29.266Z,28768.00
2019-03-17T11:10:29.232Z,25536.00
2019-03-17T11:11:29.212Z,27520.00
2019-03-17T11:12:29.180Z,39008.00
2019-03-17T11:13:29.169Z,39840.00
2019-03-17T11:14:29.141Z,33248.00
2019-03-17T11:15:29.120Z,26336.00
2019-03-17T11:16:29.046Z,24608.00
2019-03-17T11:17:29.001Z,27040.00
2019-03-17T11:18:28.984Z,30304.00
2019-03-17T11:19:28.961Z,29152.00
2019-03-17T11:20:28.912Z,27040.00
2019-03-17T11:21:28.884Z,25952.00
2019-03-17T11:22:28.858Z,28128.00
2019-03-17T11:23:28.854Z,28608.00
2019-03-17T11:24:28.807Z,27552.00
2019-03-17T11:25:28.782Z,25088.00
2019-03-17T11:26:28.724Z,47168.00
2019-03-17T11:27:28.718Z,41792.00
2019-03-17T11:28:28.712Z,36640.00
2019-03-17T11:29:28.730Z,36960.00
2019-03-17T11:30:28.632Z,37440.00
2019-03-17T11:31:28.654Z,115488.00
2019-03-17T11:32:28.581Z,36960.00
2019-03-17T11:33:28.555Z,35360.00
2019-03-17T11:34:28.528Z,27616.00
2019-03-17T11:35:28.663Z,24416.00
2019-03-17T11:36:28.437Z,25696.00
2019-03-17T11:37:28.387Z,25088.00
2019-03-17T11:38:30.020Z,24000.00
2019-03-17T11:39:37.119Z,25184.00
2019-03-17T11:40:28.344Z,25632.00
2019-03-17T11:41:28.425Z,29504.00
2019-03-17T11:42:28.297Z,37152.00
2019-03-17T11:43:28.219Z,33248.00
2019-03-17T11:44:28.190Z,30272.00
2019-03-17T11:45:28.142Z,26176.00
2019-03-17T11:46:28.133Z,25056.00
2019-03-17T11:47:28.146Z,25216.00
2019-03-17T11:48:28.093Z,25472.00
2019-03-17T11:49:28.049Z,23328.00
2019-03-17T11:50:28.017Z,22368.00
2019-03-17T11:51:27.959Z,23840.00
2019-03-17T11:52:27.974Z,25120.00
2019-03-17T11:53:27.918Z,21120.00
2019-03-17T11:54:27.890Z,20512.00
2019-03-17T11:55:27.850Z,24032.00
2019-03-17T11:56:27.862Z,28512.00
2019-03-17T11:57:27.792Z,33216.00
2019-03-17T11:58:27.747Z,43392.00
2019-03-17T11:59:27.736Z,54848.00
2019-03-17T12:00:27.682Z,66912.00
2019-03-17T12:01:27.725Z,38112.00
2019-03-17T12:02:27.630Z,40608.00
2019-03-17T12:03:27.664Z,44928.00
2019-03-17T12:04:27.557Z,38144.00
2019-03-17T12:05:27.518Z,33216.00
2019-03-17T12:06:27.530Z,37120.00
2019-03-17T12:07:27.514Z,35744.00
2019-03-17T12:08:27.457Z,30848.00
2019-03-17T12:09:29.435Z,25728.00
2019-03-17T12:10:27.382Z,26944.00
2019-03-17T12:11:27.342Z,26912.00
2019-03-17T12:12:27.457Z,27488.00
2019-03-17T12:13:27.278Z,32128.00
2019-03-17T12:14:27.363Z,32000.00
2019-03-17T12:15:27.212Z,32960.00
2019-03-17T12:16:27.183Z,37728.00
2019-03-17T12:17:27.155Z,43904.00
2019-03-17T12:18:27.120Z,41216.00
2019-03-17T12:19:27.120Z,38080.00
2019-03-17T12:20:27.093Z,36672.00
2019-03-17T12:21:27.106Z,30144.00
2019-03-17T12:22:27.022Z,26880.00
2019-03-17T12:23:26.997Z,28352.00
2019-03-17T12:24:26.937Z,25344.00
2019-03-17T12:25:26.912Z,26592.00
2019-03-17T12:26:26.953Z,32352.00
2019-03-17T12:27:26.844Z,34304.00
2019-03-17T12:28:26.796Z,34560.00
2019-03-17T12:29:26.767Z,31808.00
2019-03-17T12:30:26.859Z,26048.00
2019-03-17T12:31:26.726Z,26912.00
2019-03-17T12:32:26.687Z,24256.00
2019-03-17T12:33:26.657Z,23904.00
2019-03-17T12:34:28.575Z,25184.00
2019-03-17T12:35:26.669Z,26272.00
2019-03-17T12:36:26.579Z,29248.00
2019-03-17T12:37:26.540Z,37824.00
2019-03-17T12:38:26.540Z,44224.00
2019-03-17T12:39:26.481Z,32256.00
2019-03-17T12:40:26.456Z,30400.00
2019-03-17T12:41:26.406Z,30080.00
2019-03-17T12:42:26.368Z,31072.00
2019-03-17T12:43:26.374Z,27520.00
2019-03-17T12:44:26.344Z,25120.00
2019-03-17T12:45:26.265Z,27872.00
2019-03-17T12:46:26.253Z,30624.00
2019-03-17T12:47:26.241Z,36352.00
2019-03-17T12:48:26.175Z,45792.00
2019-03-17T12:49:26.158Z,44704.00
2019-03-17T12:50:26.113Z,39168.00
2019-03-17T12:51:26.106Z,43872.00
2019-03-17T12:52:26.069Z,54784.00
2019-03-17T12:53:26.021Z,43872.00
2019-03-17T12:54:26.032Z,32448.00
2019-03-17T12:55:26.040Z,24928.00
2019-03-17T12:56:25.921Z,19392.00
2019-03-17T12:57:25.909Z,20704.00
2019-03-17T12:58:25.866Z,31040.00
2019-03-17T12:59:25.839Z,27744.00
2019-03-17T13:00:25.816Z,28544.00
2019-03-17T13:01:25.769Z,24832.00
2019-03-17T13:02:25.768Z,21824.00
2019-03-17T13:03:25.696Z,20128.00
2019-03-17T13:04:25.697Z,19424.00
2019-03-17T13:05:25.642Z,20288.00
2019-03-17T13:06:25.607Z,19104.00
2019-03-17T13:07:25.605Z,15104.00
2019-03-17T13:08:25.555Z,15340.00
2019-03-17T13:09:25.516Z,17248.00
2019-03-17T13:10:25.472Z,14928.00
2019-03-17T13:11:25.453Z,11732.00
2019-03-17T13:12:25.436Z,10612.00
2019-03-17T13:13:25.395Z,9584.00
2019-03-17T13:14:25.355Z,8012.00
2019-03-17T13:15:25.338Z,6308.00
2019-03-17T13:16:25.460Z,5924.00
2019-03-17T13:17:25.250Z,6992.00
2019-03-17T13:18:25.229Z,7892.00
2019-03-17T13:19:25.240Z,8396.00
2019-03-17T13:20:25.195Z,8300.00
2019-03-17T13:21:25.135Z,9096.00
2019-03-17T13:22:25.112Z,8260.00
2019-03-17T13:23:25.094Z,7144.00
2019-03-17T13:24:25.061Z,6216.00
2019-03-17T13:25:25.005Z,5980.00
2019-03-17T13:26:24.964Z,5996.00
2019-03-17T13:27:24.961Z,6552.00
2019-03-17T13:28:24.913Z,5984.00
2019-03-17T13:29:24.888Z,6792.00
2019-03-17T13:30:24.935Z,9784.00
2019-03-17T13:31:24.807Z,9456.00
2019-03-17T13:32:24.801Z,8160.00
2019-03-17T13:33:24.843Z,8028.00
2019-03-17T13:34:24.735Z,7700.00
2019-03-17T13:35:24.671Z,6568.00
2019-03-17T13:36:24.636Z,6044.00
2019-03-17T13:37:24.609Z,5808.00
2019-03-17T13:38:24.611Z,6860.00
2019-03-17T13:39:24.544Z,7044.00
2019-03-17T13:40:29.513Z,6484.00
2019-03-17T13:41:25.031Z,6824.00
2019-03-17T13:42:24.460Z,6548.00
2019-03-17T13:43:24.449Z,5540.00
2019-03-17T13:44:24.348Z,4772.00
2019-03-17T13:45:24.333Z,4284.00
2019-03-17T13:46:24.294Z,4012.00
2019-03-17T13:47:24.261Z,3900.00
2019-03-17T13:48:24.234Z,4024.00
2019-03-17T13:49:24.198Z,4252.00
2019-03-17T13:50:24.154Z,4812.00
2019-03-17T13:51:24.150Z,4088.00
2019-03-17T13:52:24.093Z,4240.00
2019-03-17T13:53:24.070Z,5300.00
2019-03-17T13:54:24.061Z,5976.00
2019-03-17T13:55:23.991Z,5816.00
2019-03-17T13:56:23.952Z,6120.00
2019-03-17T13:57:23.979Z,6004.00
2019-03-17T13:58:23.875Z,4168.00
2019-03-17T13:59:23.858Z,3408.00
2019-03-17T14:00:23.834Z,3508.00
2019-03-17T14:01:23.844Z,3820.00
2019-03-17T14:02:23.750Z,3520.00
2019-03-17T14:03:23.695Z,2980.00
2019-03-17T14:04:23.670Z,2620.00
2019-03-17T14:05:23.640Z,3096.00
2019-03-17T14:06:23.608Z,3444.00
2019-03-17T14:07:23.585Z,3644.00
2019-03-17T14:08:23.530Z,3496.00
2019-03-17T14:09:23.504Z,3476.00
2019-03-17T14:10:23.474Z,4400.00
2019-03-17T14:11:23.481Z,5584.00
2019-03-17T14:12:23.399Z,6472.00
2019-03-17T14:13:23.356Z,6316.00
2019-03-17T14:14:23.360Z,7408.00
2019-03-17T14:15:23.281Z,8996.00
2019-03-17T14:16:23.248Z,9728.00
2019-03-17T14:17:23.211Z,10788.00
2019-03-17T14:18:24.067Z,11740.00
2019-03-17T14:19:24.368Z,11296.00
2019-03-17T14:20:23.131Z,10836.00
2019-03-17T14:21:24.551Z,10288.00
2019-03-17T14:22:23.176Z,9700.00
2019-03-17T14:23:23.172Z,9288.00
2019-03-17T14:24:23.087Z,9224.00
2019-03-17T14:25:23.164Z,8288.00
2019-03-17T14:26:22.992Z,8572.00
2019-03-17T14:27:23.522Z,8480.00
2019-03-17T14:28:26.072Z,7576.00
2019-03-17T14:29:22.804Z,7336.00
2019-03-17T14:30:22.776Z,8604.00
2019-03-17T14:31:23.009Z,10256.00
2019-03-17T14:32:22.676Z,9424.00
2019-03-17T14:33:22.843Z,12000.00
2019-03-17T14:34:22.607Z,12844.00
2019-03-17T14:35:22.749Z,12552.00
2019-03-17T14:36:22.510Z,12360.00
2019-03-17T14:37:22.499Z,12512.00
2019-03-17T14:38:22.430Z,12288.00
2019-03-17T14:39:22.422Z,12152.00
2019-03-17T14:40:22.401Z,11612.00
2019-03-17T14:41:22.329Z,10920.00
2019-03-17T14:42:22.322Z,10192.00
2019-03-17T14:43:22.252Z,9432.00